x

Fred Howard Park, Fl (fhpf1) Weather Station

1:54am - Tue 23rd May 2017 All times are EDT. -4 hours from GMT.

  • Wind
    13mph, 15mph gusts
  • Air Temp 80°f
  • Sea Pressure 1015.3mb
  • Fred Howard Park, Fl
  • Fred Howard Park, Fl

More Historic Weather Station data

Upgrade to MSW Pro to gain access to the past 30 days of data for over 8000 Wavebouys and Weather Stations around the globe.

Join Pro

Comparision Forecast

View Surf forecast
   
Tue 05/23 1:54am 13 15 mph 1015.3mb 80f
1:48am 13 15 mph 1015.5mb 80f
12:54am 9 11 mph 1016.2mb 80f
12:48am 9 13 mph 1016.2mb 80f
Mon 05/22 11:54pm 8 10 mph 1016.4mb 80f
11:48pm 7 9 mph 1016.5mb 80f
10:54pm 6 7 mph 1016.3mb 80f
9:54pm 8 10 mph 1016.2mb 80f
9:48pm 7 9 mph 1016.2mb 80f
8:54pm 8 10 mph 1016.5mb 80f
8:48pm 8 10 mph 1016.3mb 80f
7:54pm 10 13 mph 1015mb 80f
7:48pm 10 14 mph 1015.3mb 80f
6:54pm 14 16 mph 1014.9mb 81f
6:48pm 15 17 mph 1015mb 81f
5:54pm 16 18 mph 1015.2mb 81f
5:48pm 17 20 mph 1015.3mb 81f
4:54pm 16 20 mph 1015.8mb 81f
4:48pm 17 20 mph 1016mb 81f
3:54pm 15 18 mph 1016.6mb 82f
3:48pm 15 17 mph 1016.6mb 81f
2:54pm 16 18 mph 1017.1mb 81f
2:48pm 15 17 mph 1017.2mb 81f
1:54pm 13 14 mph 1017.4mb 81f
1:48pm 13 15 mph 1017.7mb 81f
12:54pm 10 11 mph 1018.3mb 81f
12:48pm 9 11 mph 1018.4mb 81f
11:54am 9 10 mph 1018.8mb 80f
11:48am 9 11 mph 1018.7mb 80f
10:54am 8 10 mph 1018.7mb 80f
10:48am 8 9 mph 1018.6mb 80f
9:54am 7 8 mph 1018.9mb 79f
9:48am 7 8 mph 1019mb 79f
8:54am 9 13 mph 1019.2mb 79f
8:48am 10 14 mph 1019.2mb 78f
7:54am 10 14 mph 1019.1mb 78f
7:48am 10 11 mph 1019.2mb 78f
6:54am 13 15 mph 1018.9mb 78f
6:48am 15 17 mph 1018.7mb 78f
5:54am 14 15 mph 1018.5mb 78f
5:48am 10 16 mph 1018.5mb 77f
4:54am 6 8 mph 1018.6mb 76f
4:48am 5 6 mph 1018.6mb 76f
3:54am 6 8 mph 1018.8mb 75f
3:48am 6 8 mph 1018.7mb 75f
2:54am 7 9 mph 1018.9mb 76f
2:48am 8 10 mph 1019mb 76f
1:54am 7 8 mph 1019.3mb 77f
1:48am 7 9 mph 1019.2mb 77f
12:54am 11 13 mph 1019.9mb 78f
12:48am 13 14 mph 1019.8mb 77f
Sun 05/21 11:54pm  -  2 mph 1019.8mb 80f
11:48pm 2 3 mph 1020mb 80f
10:54pm 5 7 mph 1019.8mb 80f
10:48pm 3 6 mph 1019.6mb 80f
9:54pm 2 3 mph 1018.7mb 81f
9:48pm 2 3 mph 1018.6mb 81f
8:54pm 7 8 mph 1018.1mb 81f
8:48pm 7 11 mph 1018mb 81f
7:54pm 8 11 mph 1017.8mb 81f
7:48pm 8 10 mph 1017.6mb 81f
6:54pm 7 10 mph 1017.3mb 81f
6:48pm 8 10 mph 1017.5mb 81f
5:54pm 7 9 mph 1017.6mb 82f
5:48pm 7 9 mph 1017.7mb 82f
4:54pm 6 8 mph 1018.3mb 82f
4:48pm 6 8 mph 1018.4mb 82f
3:54pm 9 11 mph 1019mb 81f
3:48pm 9 13 mph 1019mb 81f
2:54pm 9 11 mph 1019.5mb 81f
2:48pm 10 11 mph 1019.6mb 81f
1:54pm 10 13 mph 1020.3mb 82f
1:48pm 10 11 mph 1020.3mb 82f
12:54pm 3 6 mph 1020.9mb 83f
11:54am 2 5 mph 1021.5mb 82f
11:48am 2 3 mph 1021.5mb 82f
10:54am 3 5 mph 1021.5mb 81f
10:48am 2 3 mph 1021.5mb 81f
9:54am 3 6 mph 1021.3mb 80f
8:54am 8 10 mph 1020.9mb 79f
8:48am 7 8 mph 1020.9mb 79f
7:54am 7 10 mph 1020.5mb 78f
7:48am 7 8 mph 1020.6mb 77f
6:54am 9 10 mph 1020mb 77f
6:48am 8 11 mph 1019.9mb 76f
4:54am 8 9 mph 1019.6mb 76f
4:48am 7 8 mph 1019.5mb 76f
3:54am 5 6 mph 1019.3mb 76f
2:54am 2 3 mph 1019.3mb 77f
2:48am 2 3 mph 1019.3mb 78f
1:54am 7 8 mph 1019.4mb 78f
1:48am 7 8 mph 1019.5mb 78f
12:54am 6 7 mph 1019.9mb 78f
12:48am 6 7 mph 1019.9mb 78f
Sat 05/20 11:54pm 9 11 mph 1019.9mb 77f
11:48pm 13 15 mph 1019.8mb 76f
10:54pm 15 21 mph 1020mb 76f
10:48pm 14 18 mph 1019.8mb 76f
9:54pm  -  2 mph 1018.9mb 74f
9:48pm 2 5 mph 1019.1mb 74f
8:54pm 10 11 mph 1018.2mb 82f
8:48pm 11 13 mph 1017.9mb 82f
7:54pm 10 11 mph 1017.2mb 82f
7:48pm 9 11 mph 1017mb 82f
6:54pm 8 10 mph 1017.2mb 83f
6:48pm 7 9 mph 1017mb 84f
5:54pm 8 11 mph 1016.8mb 84f
5:48pm 8 10 mph 1016.8mb 84f
4:54pm 10 13 mph 1016.9mb 84f
4:48pm 10 13 mph 1016.9mb 85f
3:54pm 10 14 mph 1017mb 84f
3:48pm 10 13 mph 1017mb 84f
2:54pm 13 18 mph 1017.6mb 89f
2:48pm 13 15 mph 1017.7mb 89f
1:54pm 11 15 mph 1018.3mb 87f
1:48pm 13 16 mph 1018.4mb 87f
12:54pm 9 13 mph 1018.9mb 85f
12:48pm 8 11 mph 1019mb 85f
11:54am 13 17 mph 1019.1mb 84f
11:48am 11 18 mph 1019.1mb 84f
10:54am 10 14 mph 1019mb 82f
10:48am 13 16 mph 1018.9mb 82f
9:54am 14 18 mph 1018.6mb 81f
9:48am 14 20 mph 1018.6mb 80f
8:54am 14 17 mph 1018.3mb 78f
8:48am 14 17 mph 1018.3mb 78f
7:54am 10 14 mph 1018.1mb 77f
7:48am 10 13 mph 1018.1mb 76f